Papillion, Nebraska
Current Conditions -  °F | °C
As of 8:15 PM on Thursday 18 Dec 2014 (Local Time) from KMLE Reporting Station
Overcast Overcast  
Wind Chill: 27°   Ceiling: 1100
Heat Index: 31°   Visibility: 10mi
Dew Point: 27°   Wind: 5mph
Humidity: 85%   Direction: 130°SE
Pressure: 30.23"   Gusts: NA
Location:  41.16°N, 96.04°W
Report Text: KMLE 190215Z AUTO 13004KT 10SM OVC011 00/M03 A3023 RMK AO2 T10031026
Loading
Personal Weather Stations






























Interactive Weather Map New forecast layout! Learn more

10-Day Weather Forecast

Advertisements
Track Severe Weather on mobile